Terminal Aerodrome Forecast
Issued by NWS

Home | Current Version | Previous Version | Text Only | Print | Product List | Glossary On
Versions: 1 2 3 4 5 6 7 8 9 10 11 12
000
FTAK31 PAJN 210500
TAFAYA
TAF
PAYA 210538Z 2106/2206 06006KT P6SM VCSH BKN040 OVC100
     FM211000 VRB06KT 6SM -SHRA BKN030 OVC050
     FM211800 VRB03KT P6SM VCSH BKN030 OVC050
     FM220000 VRB08KT 5SM -SHRA BKN020 OVC050
      AMD LTD TO CLD VIS AND WIND 2106/2110=

USA.gov is the U.S. government's official web portal to all federal, state and local government web resources and services.